Flight Track Log - Related Links

Times and Time Zones

All times are in EDT time to prevent confusion due to time zone crossing. See the SKW6432 flight status page for this flight to view local times or setup timezone preferences in your user account.

Time Position Orientation Groundspeed Altitude Reporting Facility
EDT Latitude Longitude Course Direction KTS MPH feet Rate Location/Type
Tue 08:56:30 PM 33.6000 -117.8833 180° South 173 199 3,400  Level Southern California TRACON
Tue 08:57:24 PM 33.5500 -117.9000 196° South 228 262 5,000 1,860 Climbing Southern California TRACON
Tue 08:58:00 PM 33.4205 -118.3090 239° Southwest  Level FlightAware Approximate
Tue 08:58:39 PM 33.4764 -117.9483 209° Southwest 259 298 7,400  Level Los Angeles Center
Tue 08:59:00 PM 33.3735 -118.4201 337° Northwest  Level FlightAware Approximate
Tue 08:59:41 PM 33.4122 -117.9922 210° Southwest 265 305 10,200  Level Los Angeles Center
Tue 09:00:00 PM 33.4691 -118.4883 301° West  Level FlightAware Approximate
Tue 09:00:43 PM 33.3353 -118.0542 214° Southwest 289 333 12,600  Level Los Angeles Center
Tue 09:01:45 PM 33.3392 -118.1594 273° West 312 359 14,800 2,000 Climbing Los Angeles Center
Tue 09:02:46 PM 33.3536 -118.2706 279° West 330 380 16,700 2,000 Climbing Los Angeles Center
Tue 09:03:48 PM 33.3817 -118.3803 287° West 345 397 18,900 2,129 Climbing Los Angeles Center
Tue 09:04:50 PM 33.4528 -118.4653 315° West 361 415 21,100 2,419 Climbing Los Angeles Center
Tue 09:05:52 PM 33.5194 -118.5475 314° West 344 396 23,900 2,371 Climbing Los Angeles Center
Tue 09:06:54 PM 33.5881 -118.6308 315° West 347 399 26,000 1,839 Climbing Los Angeles Center
Tue 09:07:56 PM 33.6575 -118.7156 315° West 352 405 27,700 976 Climbing Los Angeles Center
Tue 09:08:57 PM 33.7286 -118.8019 315° West 360 414 28,000 146 Climbing Los Angeles Center
Tue 09:09:59 PM 33.7997 -118.8889 315° West 363 418 28,000 339 Level Los Angeles Center
Tue 09:11:01 PM 33.8858 -118.9956 314° West 369 425 28,700 774 Climbing Los Angeles Center
Tue 09:12:03 PM 33.9606 -119.0892 314° West 386 444 29,600 1,073 Climbing Los Angeles Center
Tue 09:13:04 PM 34.0381 -119.1842 315° West 397 457 30,900 1,171 Climbing Los Angeles Center
Tue 09:14:06 PM 34.1181 -119.2828 314° West 407 468 32,000 1,355 Climbing Los Angeles Center
Tue 09:15:08 PM 34.1969 -119.3814 314° West 411 473 33,700 1,452 Climbing Los Angeles Center
Tue 09:16:10 PM 34.2747 -119.4792 314° West 406 467 35,000 1,268 Climbing Los Angeles Center
Tue 09:17:11 PM 34.3522 -119.5758 314° West 402 463 36,300 1,220 Climbing Los Angeles Center
Tue 09:18:13 PM 34.4436 -119.6900 314° West 397 457 37,500 823 Climbing Los Angeles Center
Tue 09:19:15 PM 34.5197 -119.7858 314° West 395 455 38,000 244 Climbing Los Angeles Center
Tue 09:20:16 PM 34.6100 -119.8800 319° Northwest 424 488 38,000  Level Los Angeles Center
Tue 09:21:18 PM 34.6975 -119.9758 318° Northwest 425 489 38,000  Level Los Angeles Center
Tue 09:22:19 PM 34.7667 -120.0514 318° Northwest 419 482 38,000  Level Los Angeles Center
Tue 09:23:21 PM 34.8664 -120.1578 319° Northwest 426 490 38,000  Level Los Angeles Center
Tue 09:24:23 PM 34.9650 -120.2678 318° Northwest 412 474 38,000  Level Los Angeles Center
Tue 09:25:25 PM 35.0475 -120.3594 318° Northwest 406 467 38,000  Level Los Angeles Center
Tue 09:26:26 PM 35.1292 -120.4511 317° Northwest 403 464 38,000  Level Los Angeles Center
Tue 09:27:28 PM 35.2114 -120.5425 318° Northwest 406 467 38,000  Level Los Angeles Center
Tue 09:28:42 PM 35.2931 -120.6353 317° Northwest 405 466 38,000  Level Los Angeles Center
Tue 09:29:37 PM 35.3992 -120.7328 323° Northwest 407 468 38,000  Level Oakland Center
Tue 09:30:38 PM 35.4914 -120.8158 324° Northwest 407 468 38,000  Level Oakland Center
Tue 09:31:39 PM 35.5833 -120.8981 324° Northwest 407 468 38,000  Level Oakland Center
Tue 09:32:40 PM 35.6750 -120.9814 324° Northwest 407 468 38,000  Level Oakland Center
Tue 09:33:42 PM 35.7681 -121.0656 324° Northwest 412 474 38,000  Level Oakland Center
Tue 09:34:43 PM 35.8794 -121.1656 324° Northwest 413 475 38,000 -197 Level Oakland Center
Tue 09:35:44 PM 35.9714 -121.2503 323° Northwest 413 475 37,600 -1,475 Descending Oakland Center
Tue 09:36:45 PM 36.0692 -121.3381 324° Northwest 426 490 35,000 -2,585 Descending Oakland Center
Tue 09:37:47 PM 36.1697 -121.4292 324° Northwest 442 509 32,300 -2,585 Descending Oakland Center
Tue 09:38:48 PM 36.2686 -121.5206 323° Northwest 444 511 29,700 -2,459 Descending Oakland Center
Tue 09:39:49 PM 36.3658 -121.6106 323° Northwest 439 505 27,300 -2,311 Descending Oakland Center
Tue 09:40:50 PM 36.4581 -121.6950 324° Northwest 419 482 25,000 -1,610 Descending Oakland Center
Tue 09:41:52 PM 36.5369 -121.7700 323° Northwest 363 418 24,000 -1,463 Descending Oakland Center
Tue 09:42:53 PM 36.6100 -121.8367 324° Northwest 332 382 22,000 -2,083 Descending Oakland Center
Tue 09:43:53 PM 36.7000 -121.9167 325° Northwest 342 394 19,800 -2,050 Descending Northern Cal TRACON
Tue 09:44:53 PM 36.7667 -121.9667 329° Northwest 310 357 17,900 -1,762 Descending Northern Cal TRACON
Tue 09:45:59 PM 36.8500 -122.0000 342° North 303 349 16,100 -1,694 Descending Northern Cal TRACON
Tue 09:46:57 PM 36.9333 -122.0131 353° North 298 343 14,400 -1,700 Descending Oakland Center
Tue 09:47:59 PM 37.0106 -122.0339 348° North 289 333 12,700 -1,610 Descending Oakland Center
Tue 09:49:00 PM 37.0933 -122.0558 348° North 285 328 11,100 -1,279 Descending Oakland Center
Tue 09:50:01 PM 37.1681 -122.0756 348° North 277 319 10,100 -934 Descending Oakland Center
Tue 09:51:02 PM 37.2089 -122.1447 307° West 272 313 9,200 -836 Descending Oakland Center
Tue 09:52:03 PM 37.2336 -122.2192 293° West 241 277 8,400 -590 Descending Oakland Center
Tue 09:53:04 PM 37.2581 -122.2911 293° West 228 262 8,000 -295 Descending Oakland Center
Tue 09:54:05 PM 37.2917 -122.3531 304° West 237 273 7,800 -492 Descending Oakland Center
Tue 09:55:06 PM 37.3508 -122.3353 13° North 234 269 7,000 -639 Descending Oakland Center
Tue 09:56:07 PM 37.3850 -122.2683 57° Northeast 245 282 6,500 -541 Descending Oakland Center
Tue 09:57:08 PM 37.3997 -122.1856 77° East 243 280 5,900 -850 Descending Oakland Center
Tue 09:58:00 PM 37.4167 -122.1167 73° East 213 245 4,900 -915 Descending Northern Cal TRACON
Tue 09:59:06 PM 37.4667 -122.1167 360° North 185 213 4,100 -429 Descending Northern Cal TRACON
Tue 10:00:06 PM 37.5000 -122.1500 322° Northwest 176 203 4,000 -417 Descending Northern Cal TRACON
Tue 10:01:01 PM 37.5333 -122.1833 322° Northwest 174 200 3,300 -730 Descending Northern Cal TRACON
Tue 10:02:01 PM 37.5667 -122.2333 310° West 165 190 2,600 -700 Descending Northern Cal TRACON

Login

Don't have an account? Register now (free) for customized features, flight alerts, and more!